• Join FlightAware (Why Join?)
  • Login
  • US Flag 
06:24PM EDT


 

Airport Tracker/Info


-or-


 

Live Flight TrackerFlight Track Log ✈ XOJ552 ✈ 01-May-2013 ✈ KVNY - KDAL

Flight Track Log - Related Links

Times and Time Zones

All times are in EDT time to prevent confusion due to time zone crossing. See the XOJ552 flight status page for this flight to view local times or setup timezone preferences in your user account.

Time Position Orientation Groundspeed Altitude Reporting Facility
EDT Latitude Longitude Course Direction KTS MPH feet Rate Location/Type
02:55PM 34.1819 -118.4881 77° East 175 201 41,000  Level Los Angeles Center
02:56PM 34.1731 -118.4397 103° East 222 255 4,300 -16,080 Descending Los Angeles Center
02:57PM 34.2369 -118.4347 North 240 276 7,600 3,480 Climbing Los Angeles Center
02:58PM 34.3189 -118.4481 352° North 294 338 11,600 3,480 Climbing Los Angeles Center
02:59PM 34.4036 -118.4283 11° North 325 374 14,800 2,940 Climbing Los Angeles Center
03:00PM 34.4636 -118.3331 53° Northeast 357 411 17,700 2,580 Climbing Los Angeles Center
03:01PM 34.6224 -118.0184 77° East  Level FlightAware Approximate
03:01PM 34.5275 -118.2328 52° Northeast 376 433 20,200  Level Los Angeles Center
03:02PM 34.6086 -118.1014 53° Northeast 413 475 22,900 2,340 Climbing Los Angeles Center
03:03PM 34.6414 -117.9622 74° East 436 502 25,100 2,220 Climbing Los Angeles Center
03:04PM 34.6586 -117.8131 82° East 447 514 27,500 2,280 Climbing Los Angeles Center
03:05PM 34.6742 -117.6622 83° East 453 521 29,900 2,220 Climbing Los Angeles Center
03:06PM 34.6939 -117.4800 82° East 459 528 32,200 1,500 Climbing Los Angeles Center
03:07PM 34.7097 -117.3211 83° East 476 548 33,100 1,140 Climbing Los Angeles Center
03:08PM 34.7267 -117.1589 83° East 487 560 34,600 1,740 Climbing Los Angeles Center
03:09PM 34.7414 -116.9983 84° East 487 560 36,800 2,400 Climbing Los Angeles Center
03:11PM 34.7564 -116.8503 83° East 457 526 39,600 1,680 Climbing Los Angeles Center
03:12PM 34.7767 -116.6492 83° East 433 498 40,700 600 Climbing Los Angeles Center
03:13PM 34.7917 -116.4967 83° East 448 516 41,000 120 Climbing Los Angeles Center
03:14PM 34.7956 -116.3336 88° East 471 542 41,000 360 Level Los Angeles Center
03:15PM 34.7936 -116.1756 91° East 480 552 41,800 720 Climbing Los Angeles Center
03:16PM 34.7922 -116.0139 91° East 480 552 42,500 540 Climbing Los Angeles Center
03:17PM 34.7897 -115.8539 91° East 476 548 43,000 480 Climbing Los Angeles Center
03:18PM 34.7878 -115.6586 91° East 481 554 43,600 480 Climbing Los Angeles Center
03:19PM 34.7858 -115.5122 91° East 480 552 44,100 480 Climbing Los Angeles Center
03:20PM 34.7822 -115.2858 91° East 480 552 44,800 420 Climbing Los Angeles Center
03:21PM 34.7789 -115.1242 91° East 480 552 45,000 60 Climbing Los Angeles Center
03:22PM 34.7750 -114.9594 92° East 487 560 45,000  Level Los Angeles Center
03:23PM 34.7719 -114.7931 91° East 492 566 45,000  Level Los Angeles Center
03:24PM 34.7681 -114.6250 92° East 499 574 45,000  Level Los Angeles Center
03:25PM 34.7642 -114.4592 92° East 493 567 45,000  Level Los Angeles Center
03:26PM 34.7608 -114.2575 91° East 498 573 45,000  Level Los Angeles Center
03:27PM 34.7556 -114.0889 92° East 499 574 45,000  Level Los Angeles Center
03:29PM 34.7508 -113.9211 92° East 499 574 45,000  Level Los Angeles Center
03:29PM 34.7475 -113.7844 92° East 502 578 45,000  Level Albuquerque Center
03:30PM 34.7414 -113.6175 93° East 498 573 45,000  Level Albuquerque Center
03:31PM 34.7378 -113.4461 91° East 503 579 45,000  Level Albuquerque Center
03:32PM 34.7317 -113.2758 92° East 501 577 45,000  Level Albuquerque Center
03:33PM 34.7264 -113.1056 92° East 504 580 45,000  Level Albuquerque Center
03:34PM 34.7189 -112.9033 93° East 501 577 45,000  Level Albuquerque Center
03:35PM 34.7128 -112.7331 92° East 503 579 45,000  Level Albuquerque Center
03:37PM 34.7061 -112.5639 93° East 502 578 45,000  Level Albuquerque Center
03:38PM 34.7044 -112.3969 91° East 496 571 45,000  Level Albuquerque Center
03:39PM 34.7089 -112.2281 88° East 497 572 45,000  Level Albuquerque Center
03:40PM 34.7103 -112.0575 89° East 500 575 45,000  Level Albuquerque Center
03:41PM 34.7133 -111.8881 89° East 502 578 45,000  Level Albuquerque Center
03:42PM 34.7147 -111.7169 89° East 503 579 45,000  Level Albuquerque Center
03:43PM 34.7169 -111.5142 89° East 500 575 45,000  Level Albuquerque Center
03:44PM 34.7183 -111.3461 89° East 497 572 45,000  Level Albuquerque Center
03:45PM 34.7197 -111.1764 89° East 500 575 45,000  Level Albuquerque Center
03:46PM 34.7211 -111.0078 89° East 500 575 45,000  Level Albuquerque Center
03:47PM 34.7228 -110.8369 89° East 501 577 45,000  Level Albuquerque Center
03:48PM 34.7228 -110.6583 90° East 501 577 45,000  Level Albuquerque Center
03:49PM 34.7242 -110.4714 89° East 498 573 45,000  Level Albuquerque Center
03:50PM 34.7256 -110.3114 89° East 498 573 45,000  Level Albuquerque Center
03:51PM 34.7233 -110.1222 91° East 500 575 45,000  Level Albuquerque Center
03:52PM 34.7233 -109.9603 90° East 502 578 45,000  Level Albuquerque Center
03:53PM 34.7217 -109.7697 91° East 505 581 45,000  Level Albuquerque Center
03:54PM 34.7217 -109.6086 90° East 503 579 45,000  Level Albuquerque Center
03:55PM 34.7211 -109.4456 90° East 503 579 45,000  Level Albuquerque Center
03:56PM 34.7194 -109.2567 91° East 504 580 45,000  Level Albuquerque Center
03:57PM 34.7192 -109.0947 90° East 503 579 45,000  Level Albuquerque Center
03:58PM 34.7167 -108.9042 91° East 506 582 45,000  Level Albuquerque Center
03:59PM 34.7147 -108.7417 91° East 505 581 45,000  Level Albuquerque Center
04:00PM 34.7125 -108.5519 91° East 504 580 45,000  Level Albuquerque Center
04:01PM 34.7092 -108.3833 91° East 503 579 45,000  Level Albuquerque Center
04:02PM 34.7067 -108.2122 91° East 506 582 45,000  Level Albuquerque Center
04:03PM 34.7028 -108.0406 92° East 509 586 45,000  Level Albuquerque Center
04:04PM 34.6992 -107.8672 91° East 514 592 45,000  Level Albuquerque Center
04:05PM 34.6964 -107.6967 91° East 511 588 45,000  Level Albuquerque Center
04:06PM 34.6917 -107.4914 92° East 509 586 45,000  Level Albuquerque Center
04:07PM 34.6875 -107.3189 92° East 513 590 45,000  Level Albuquerque Center
04:08PM 34.6833 -107.1500 92° East 508 585 45,000  Level Albuquerque Center
04:10PM 34.6775 -106.9819 92° East 504 580 45,000  Level Albuquerque Center
04:11PM 34.6719 -106.8158 92° East 501 577 45,000  Level Albuquerque Center
04:12PM 34.6658 -106.6156 92° East 500 575 45,000  Level Albuquerque Center
04:13PM 34.6603 -106.4469 92° East 502 578 45,000  Level Albuquerque Center
04:14PM 34.6547 -106.2786 92° East 503 579 45,000  Level Albuquerque Center
04:15PM 34.6497 -106.0900 92° East 503 579 45,000  Level Albuquerque Center
04:16PM 34.6431 -105.9172 93° East 507 583 45,000  Level Albuquerque Center
04:17PM 34.6350 -105.7450 93° East 508 585 45,000  Level Albuquerque Center
04:18PM 34.6308 -105.5739 92° East 505 581 45,000  Level Albuquerque Center
04:19PM 34.6228 -105.4019 93° East 505 581 45,000  Level Albuquerque Center
04:20PM 34.6169 -105.2336 92° East 501 577 45,100  Climbing Albuquerque Center
04:21PM 34.6100 -105.0681 93° East 491 565 45,100 -60 Level Albuquerque Center
04:22PM 34.6011 -104.8769 93° East 484 557 45,000 -60 Descending Albuquerque Center
04:23PM 34.5944 -104.7125 93° East 484 557 45,000  Level Albuquerque Center
04:24PM 34.5867 -104.5450 93° East 492 566 45,000  Level Albuquerque Center
04:25PM 34.5792 -104.3747 93° East 500 575 45,000  Level Albuquerque Center
04:26PM 34.5703 -104.2014 94° East 510 587 45,000  Level Albuquerque Center
04:27PM 34.5625 -104.0317 93° East 506 582 45,000  Level Albuquerque Center
04:28PM 34.5519 -103.8350 94° East 501 577 45,000  Level Albuquerque Center
04:29PM 34.5428 -103.6689 94° East 494 568 45,000  Level Albuquerque Center
04:30PM 34.5342 -103.5036 94° East 490 564 45,000  Level Albuquerque Center
04:31PM 34.5236 -103.3381 94° East 491 565 45,000  Level Albuquerque Center
04:32PM 34.5153 -103.1725 93° East 489 563 45,000  Level Albuquerque Center
04:33PM 34.5044 -103.0067 94° East 491 565 45,000  Level Albuquerque Center
04:34PM 34.4947 -102.8417 94° East 489 563 45,000  Level Albuquerque Center
04:35PM 34.4769 -102.6622 97° East 489 563 45,000  Level Albuquerque Center
04:36PM 34.4600 -102.4967 97° East 494 568 45,000  Level Albuquerque Center
04:37PM 34.4422 -102.3317 97° East 497 572 45,000  Level Albuquerque Center
04:38PM 34.4242 -102.1661 97° East 498 573 45,000  Level Albuquerque Center
04:39PM 34.4031 -101.9683 97° East 498 573 45,000  Level Albuquerque Center
04:40PM 34.3847 -101.8006 97° East 502 578 45,000  Level Albuquerque Center
04:42PM 34.3664 -101.6317 97° East 507 583 45,000  Level Albuquerque Center
04:42PM 34.3644 -101.5897 93° East 505 581 45,000  Level Fort Worth Center
04:43PM 34.3411 -101.4050 99° East 505 581 45,000  Level Fort Worth Center
04:44PM 34.3214 -101.2381 98° East 505 581 45,000  Level Fort Worth Center
04:45PM 34.3014 -101.0714 98° East 505 581 45,000  Level Fort Worth Center
04:46PM 34.2831 -100.9072 98° East 505 581 45,000  Level Fort Worth Center
04:47PM 34.2647 -100.7406 98° East 505 581 45,000  Level Fort Worth Center
04:48PM 34.2439 -100.5714 98° East 505 581 45,000  Level Fort Worth Center
04:49PM 34.2250 -100.4100 98° East 499 574 45,000  Level Fort Worth Center
04:50PM 34.2017 -100.2486 100° East 493 567 45,000  Level Fort Worth Center
04:51PM 34.1614 -100.0917 107° East 487 560 45,000  Level Fort Worth Center
04:52PM 34.1189 -99.9297 108° East 499 574 45,000  Level Fort Worth Center
04:53PM 34.0781 -99.7706 107° East 499 574 45,000 -180 Level Fort Worth Center
04:54PM 34.0369 -99.6142 108° East 499 574 44,700 -720 Descending Fort Worth Center
04:55PM 33.9939 -99.4528 108° East 499 574 43,600 -1,320 Descending Fort Worth Center
04:56PM 33.9525 -99.2939 107° East 499 574 42,100 -1,380 Descending Fort Worth Center
04:57PM 33.9169 -99.1656 108° East 486 559 40,900 -1,680 Descending Fort Worth Center
04:58PM 33.8792 -99.0197 107° East 470 541 38,800 -2,340 Descending Fort Worth Center
04:59PM 33.8392 -98.8689 108° East 465 535 36,300 -2,580 Descending Fort Worth Center
05:00PM 33.7992 -98.7233 108° East 465 535 33,700 -2,700 Descending Fort Worth Center
05:01PM 33.7589 -98.5753 108° East 465 535 31,000 -2,700 Descending Fort Worth Center
05:02PM 33.7164 -98.4247 109° East 465 535 28,300 -2,760 Descending Fort Worth Center
05:03PM 33.6797 -98.2847 107° East 460 529 25,500 -2,760 Descending Fort Worth Center
05:04PM 33.6767 -98.1472 91° East 419 482 22,800 -2,400 Descending Fort Worth Center
05:05PM 33.6856 -98.0075 86° East 419 482 20,800 -1,920 Descending Fort Worth Center
05:06PM 33.6967 -97.8803 84° East 405 466 19,000 -1,860 Descending Fort Worth Center
05:07PM 33.6969 -97.7456 90° East 381 438 17,100 -1,980 Descending Fort Worth Center
05:08PM 33.6181 -97.6556 136° Southeast 342 394 15,100 -1,860 Descending Fort Worth Center
05:09PM 33.5472 -97.5781 138° Southeast 359 413 13,400 -1,800 Descending Fort Worth Center
05:10PM 33.4719 -97.4931 137° Southeast 351 404 11,600 -1,380 Descending Fort Worth Center
05:11PM 33.4075 -97.4233 138° Southeast 325 374 10,700 -1,020 Descending Fort Worth Center
05:12PM 33.3594 -97.3564 131° Southeast 309 356 9,600 -1,380 Descending Fort Worth Center
05:13PM 33.3656 -97.2542 86° East 261 300 8,000 -1,500 Descending Fort Worth Center
05:14PM 33.3739 -97.1622 84° East 261 300 6,700 -1,500 Descending Fort Worth Center
05:15PM 33.3653 -97.0803 97° East 273 314 5,000 -1,380 Descending Fort Worth Center
05:16PM 33.3567 -96.9883 96° East 257 296 4,000 -540 Descending Fort Worth Center
05:17PM 33.3417 -96.9111 103° East 251 289 4,000  Level Fort Worth Center
05:18PM 33.3183 -96.8242 108° East 256 295 4,100  Climbing Fort Worth Center
05:19PM 33.2578 -96.7925 156° South 232 267 4,000 -60 Descending Fort Worth Center
05:20PM 33.1889 -96.7878 177° South 238 274 4,000  Level Fort Worth Center
05:21PM 33.1283 -96.7808 175° South 233 268 4,100  Climbing Fort Worth Center
05:22PM 33.0656 -96.7764 177° South 233 268 4,000 -120 Descending Fort Worth Center
05:23PM 33.0000 -96.7833 185° South 223 257 3,900 -60 Descending Dallas / Fort Worth TRACON
05:24PM 32.9833 -96.8500 253° West 241 277 3,900  Level Dallas / Fort Worth TRACON
05:25PM 32.9667 -96.9167 253° West 194 223 3,900 -480 Level Dallas / Fort Worth TRACON
05:26PM 32.9333 -96.9500 220° Southwest 191 220 3,100 -900 Descending Dallas / Fort Worth TRACON
05:27PM 32.9000 -96.9333 157° South 152 175 2,100 -780 Descending Dallas / Fort Worth TRACON
05:28PM 32.8833 -96.8833 112° Southeast 133 153 1,500 -600 Descending Dallas / Fort Worth TRACON